Jamison, Iowa
Current Conditions -  °F | °C
As of 4:55 PM on Thursday 18 Dec 2014 (Local Time) from KI75 Reporting Station
Overcast Overcast  
Wind Chill: 31°   Ceiling: 1300
Heat Index: 31°   Visibility: 10mi
Dew Point: 27°   Wind: 3mph
Humidity: 85%   Direction: 50°NE
Pressure: 30.22"   Gusts: NA
Location:  41.1554°N, 93.6829°W
Report Text: KI75 182255Z AUTO 05003KT 10SM OVC013 M01/M03 A3022 RMK AO2 T10071029
Loading
Personal Weather Stations






























Interactive Weather Map New forecast layout! Learn more

10-Day Weather Forecast

Advertisements
Track Severe Weather on mobile